Airfield :
LOGIN :

Register | Disclaimer

   EN    FR    IT 

 










Legend :    VFR   Marginal VFR   IFR   Intensive IFR   Very Intensive IFR
Visi :
Ceiling :
>= 8 km
>= 3000ft
5 to 8 km
1000 to 3000 ft
1500m to 5 km
500 to 1000 ft
800 to 1500m
200 to 500 ft
< 800m
< 200 ft
Symbols :   Thunderstorms  Fog  Heavy snow  Heavy precipitations  Wind > 20 kt
SIGMETs :     Misc.  Thunderstorms  Icing  Turbulence  Mountain Waves  Volcanic Ashes






- Airport Elevation : 239 ft
- IATA code : VRN


LIPX - Villafranca Int. Verona

CURRENT METAR :
  • 020120Z AUTO 08008KT 9999 OVC054/// 08/03 Q1018

EXPIRED METARs :
  • 020050Z AUTO 08006KT 050V110 9999 OVC058/// 08/03 Q1018
  • 020020Z AUTO 34003KT 310V040 9999 BKN060/// 06/03 Q1018
  • 012350Z AUTO 15002KT 9999 OVC060/// 06/03 Q1018
  • 012320Z AUTO 14004KT 9999 OVC062/// 06/03 Q1019
  • 012250Z AUTO 13005KT 9999 OVC060/// 07/03 Q1018

TAF TAF LIPX
Valid from the 02 at 00:00 until the 03 at 00:00 UTC


012300Z 0200/0224 09007KT 9999 BKN060
TEMPO 0200/0208 2000 BR
BECMG 0210/0212 4000 -RA BR BKN014



MET'MAP, your aeronautical weather chart ! - Copyright ORBIFLY December 2007 - Disclaimer

ORBIFLY MET'MAP TEAM :

Programming & Development : Alexandra Zaïnal
Original concept : Baudouin d'Aumeries
Technical & hardware support : Manuel Goepfert
Assistance : Marc-Olivier Méhu




SOURCES & CREDITS :

   NOAA